createdAt,value
2019-03-06T00:00:22.523Z,1005.49
2019-03-06T00:01:22.531Z,1005.45
2019-03-06T00:02:22.543Z,1005.42
2019-03-06T00:03:22.529Z,1005.52
2019-03-06T00:04:22.590Z,1005.53
2019-03-06T00:05:22.598Z,1005.53
2019-03-06T00:06:22.592Z,1005.59
2019-03-06T00:07:22.591Z,1005.59
2019-03-06T00:08:22.589Z,1005.59
2019-03-06T00:09:22.599Z,1005.59
2019-03-06T00:10:22.595Z,1005.57
2019-03-06T00:11:22.593Z,1005.59
2019-03-06T00:12:22.598Z,1005.58
2019-03-06T00:13:22.599Z,1005.57
2019-03-06T00:14:22.614Z,1005.54
2019-03-06T00:15:22.622Z,1005.55
2019-03-06T00:16:22.632Z,1005.50
2019-03-06T00:17:22.642Z,1005.51
2019-03-06T00:18:22.656Z,1005.47
2019-03-06T00:19:22.666Z,1005.48
2019-03-06T00:20:22.675Z,1005.44
2019-03-06T00:21:22.686Z,1005.43
2019-03-06T00:22:22.697Z,1005.45
2019-03-06T00:23:22.707Z,1005.47
2019-03-06T00:24:22.718Z,1005.46
2019-03-06T00:25:22.751Z,1005.46
2019-03-06T00:26:22.744Z,1005.46
2019-03-06T00:27:22.753Z,1005.47
2019-03-06T00:28:22.763Z,1005.50
2019-03-06T00:29:22.774Z,1005.52
2019-03-06T00:30:22.785Z,1005.51
2019-03-06T00:31:22.797Z,1005.49
2019-03-06T00:32:22.809Z,1005.53
2019-03-06T00:33:22.820Z,1005.52
2019-03-06T00:34:22.828Z,1005.55
2019-03-06T00:35:22.844Z,1005.59
2019-03-06T00:36:22.850Z,1005.54
2019-03-06T00:37:22.863Z,1005.53
2019-03-06T00:38:22.876Z,1005.53
2019-03-06T00:39:22.885Z,1005.49
2019-03-06T00:40:22.893Z,1005.55
2019-03-06T00:41:22.906Z,1005.53
2019-03-06T00:42:22.917Z,1005.50
2019-03-06T00:43:22.927Z,1005.56
2019-03-06T00:44:22.942Z,1005.58
2019-03-06T00:45:22.953Z,1005.54
2019-03-06T00:46:22.958Z,1005.58
2019-03-06T00:47:22.974Z,1005.63
2019-03-06T00:48:22.985Z,1005.65
2019-03-06T00:49:22.995Z,1005.64
2019-03-06T00:50:23.014Z,1005.61
2019-03-06T00:51:23.017Z,1005.64
2019-03-06T00:52:23.027Z,1005.63
2019-03-06T00:53:23.038Z,1005.63
2019-03-06T00:54:23.049Z,1005.66
2019-03-06T00:55:23.071Z,1005.71
2019-03-06T00:56:23.075Z,1005.67
2019-03-06T00:57:23.086Z,1005.66
2019-03-06T00:58:24.998Z,1005.63
2019-03-06T00:59:23.108Z,1005.64
2019-03-06T01:00:23.117Z,1005.64
2019-03-06T01:01:23.128Z,1005.66
2019-03-06T01:02:23.139Z,1005.68
2019-03-06T01:03:23.151Z,1005.65
2019-03-06T01:04:23.162Z,1005.65
2019-03-06T01:05:23.174Z,1005.66
2019-03-06T01:06:23.185Z,1005.66
2019-03-06T01:07:23.196Z,1005.68
2019-03-06T01:08:23.208Z,1005.67
2019-03-06T01:09:23.222Z,1005.70
2019-03-06T01:10:23.230Z,1005.69
2019-03-06T01:11:23.243Z,1005.72
2019-03-06T01:12:23.252Z,1005.76
2019-03-06T01:13:23.264Z,1005.76
2019-03-06T01:14:23.276Z,1005.77
2019-03-06T01:15:23.287Z,1005.80
2019-03-06T01:16:23.297Z,1005.82
2019-03-06T01:17:23.309Z,1005.85
2019-03-06T01:18:23.320Z,1005.87
2019-03-06T01:19:23.330Z,1005.84
2019-03-06T01:20:23.340Z,1005.81
2019-03-06T01:21:23.349Z,1005.89
2019-03-06T01:22:23.365Z,1005.79
2019-03-06T01:23:23.375Z,1005.85
2019-03-06T01:24:23.388Z,1005.85
2019-03-06T01:25:23.395Z,1005.82
2019-03-06T01:26:23.407Z,1005.81
2019-03-06T01:27:23.419Z,1005.79
2019-03-06T01:28:23.430Z,1005.80
2019-03-06T01:29:23.440Z,1005.79
2019-03-06T01:30:23.455Z,1005.82
2019-03-06T01:31:23.466Z,1005.83
2019-03-06T01:32:23.475Z,1005.86
2019-03-06T01:33:23.485Z,1005.84
2019-03-06T01:34:23.504Z,1005.86
2019-03-06T01:35:23.509Z,1005.78
2019-03-06T01:36:23.520Z,1005.77
2019-03-06T01:37:23.530Z,1005.79
2019-03-06T01:38:23.542Z,1005.77
2019-03-06T01:39:23.553Z,1005.78
2019-03-06T01:40:23.564Z,1005.80
2019-03-06T01:41:23.574Z,1005.85
2019-03-06T01:42:23.586Z,1005.87
2019-03-06T01:43:23.599Z,1005.83
2019-03-06T01:44:23.609Z,1005.83
2019-03-06T01:45:23.620Z,1005.82
2019-03-06T01:46:23.630Z,1005.84
2019-03-06T01:47:23.641Z,1005.84
2019-03-06T01:48:23.654Z,1005.86
2019-03-06T01:49:23.665Z,1005.86
2019-03-06T01:50:23.676Z,1005.84
2019-03-06T01:51:23.687Z,1005.89
2019-03-06T01:52:23.700Z,1005.92
2019-03-06T01:53:23.708Z,1005.93
2019-03-06T01:54:23.717Z,1005.86
2019-03-06T01:55:23.731Z,1005.85
2019-03-06T01:56:23.747Z,1005.84
2019-03-06T01:57:23.751Z,1005.88
2019-03-06T01:58:23.761Z,1005.93
2019-03-06T01:59:23.776Z,1005.93
2019-03-06T02:00:23.786Z,1005.92
2019-03-06T02:01:23.800Z,1005.96
2019-03-06T02:02:23.808Z,1005.93
2019-03-06T02:03:23.819Z,1005.95
2019-03-06T02:04:23.832Z,1005.89
2019-03-06T02:05:23.840Z,1005.85
2019-03-06T02:06:23.850Z,1005.94
2019-03-06T02:07:23.861Z,1005.89
2019-03-06T02:08:23.878Z,1005.93
2019-03-06T02:09:23.882Z,1005.95
2019-03-06T02:10:23.895Z,1005.93
2019-03-06T02:11:23.908Z,1005.94
2019-03-06T02:12:23.920Z,1005.93
2019-03-06T02:13:23.938Z,1005.89
2019-03-06T02:14:23.939Z,1005.92
2019-03-06T02:15:23.950Z,1005.91
2019-03-06T02:16:23.960Z,1005.91
2019-03-06T02:17:23.971Z,1005.87
2019-03-06T02:18:23.983Z,1005.92
2019-03-06T02:19:23.994Z,1005.95
2019-03-06T02:20:24.004Z,1005.92
2019-03-06T02:21:24.016Z,1005.95
2019-03-06T02:22:24.024Z,1006.02
2019-03-06T02:23:24.034Z,1005.95
2019-03-06T02:24:24.047Z,1005.94
2019-03-06T02:25:24.064Z,1005.99
2019-03-06T02:26:24.071Z,1005.95
2019-03-06T02:27:24.079Z,1006.02
2019-03-06T02:28:24.092Z,1006.00
2019-03-06T02:29:24.100Z,1006.00
2019-03-06T02:30:24.111Z,1005.98
2019-03-06T02:31:24.123Z,1006.05
2019-03-06T02:32:24.134Z,1006.02
2019-03-06T02:33:24.206Z,1006.02
2019-03-06T02:34:24.157Z,1006.04
2019-03-06T02:35:24.171Z,1005.98
2019-03-06T02:36:24.178Z,1005.99
2019-03-06T02:37:24.190Z,1005.95
2019-03-06T02:38:24.200Z,1005.95
2019-03-06T02:39:24.214Z,1005.96
2019-03-06T02:40:24.222Z,1005.92
2019-03-06T02:41:24.238Z,1005.94
2019-03-06T02:42:24.262Z,1005.95
2019-03-06T02:43:24.335Z,1005.97
2019-03-06T02:44:24.328Z,1005.94
2019-03-06T02:45:24.331Z,1005.97
2019-03-06T02:46:24.322Z,1005.98
2019-03-06T02:47:24.324Z,1006.02
2019-03-06T02:48:24.387Z,1005.99
2019-03-06T02:49:24.394Z,1006.05
2019-03-06T02:50:24.387Z,1006.01
2019-03-06T02:51:24.435Z,1006.05
2019-03-06T02:52:24.386Z,1006.03
2019-03-06T02:53:24.387Z,1006.01
2019-03-06T02:54:24.381Z,1005.98
2019-03-06T02:55:24.383Z,1006.02
2019-03-06T02:56:24.391Z,1006.01
2019-03-06T02:57:24.403Z,1005.98
2019-03-06T02:58:24.412Z,1006.02
2019-03-06T02:59:24.423Z,1006.06
2019-03-06T03:00:24.436Z,1006.07
2019-03-06T03:01:24.447Z,1006.01
2019-03-06T03:02:24.502Z,1006.00
2019-03-06T03:03:24.466Z,1006.00
2019-03-06T03:04:24.478Z,1006.05
2019-03-06T03:05:24.487Z,1006.03
2019-03-06T03:06:24.500Z,1006.04
2019-03-06T03:07:24.516Z,1006.06
2019-03-06T03:08:24.521Z,1006.10
2019-03-06T03:09:24.528Z,1006.06
2019-03-06T03:10:24.546Z,1006.11
2019-03-06T03:11:24.552Z,1006.11
2019-03-06T03:12:24.570Z,1006.10
2019-03-06T03:13:24.571Z,1006.10
2019-03-06T03:14:24.592Z,1006.07
2019-03-06T03:15:24.594Z,1006.10
2019-03-06T03:16:24.602Z,1006.11
2019-03-06T03:17:24.615Z,1006.07
2019-03-06T03:18:24.626Z,1006.08
2019-03-06T03:19:24.636Z,1006.06
2019-03-06T03:20:24.650Z,1006.03
2019-03-06T03:21:26.858Z,1006.06
2019-03-06T03:22:24.667Z,1006.08
2019-03-06T03:23:24.679Z,1006.06
2019-03-06T03:24:24.690Z,1006.10
2019-03-06T03:25:24.705Z,1006.09
2019-03-06T03:26:24.705Z,1006.05
2019-03-06T03:27:24.718Z,1006.07
2019-03-06T03:28:24.735Z,1006.08
2019-03-06T03:29:24.741Z,1006.10
2019-03-06T03:30:24.757Z,1006.08
2019-03-06T03:31:24.763Z,1006.07
2019-03-06T03:32:24.773Z,1006.07
2019-03-06T03:33:24.783Z,1006.08
2019-03-06T03:34:24.825Z,1006.12
2019-03-06T03:35:24.809Z,1006.11
2019-03-06T03:36:24.815Z,1006.14
2019-03-06T03:37:24.827Z,1006.13
2019-03-06T03:38:24.834Z,1006.14
2019-03-06T03:39:24.849Z,1006.16
2019-03-06T03:40:24.859Z,1006.14
2019-03-06T03:41:24.870Z,1006.14
2019-03-06T03:42:24.875Z,1006.14
2019-03-06T03:43:24.889Z,1006.18
2019-03-06T03:44:24.901Z,1006.14
2019-03-06T03:45:24.909Z,1006.15
2019-03-06T03:46:24.920Z,1006.14
2019-03-06T03:47:24.932Z,1006.16
2019-03-06T03:48:24.941Z,1006.16
2019-03-06T03:49:24.949Z,1006.15
2019-03-06T03:50:24.961Z,1006.16
2019-03-06T03:51:24.972Z,1006.16
2019-03-06T03:52:24.983Z,1006.15
2019-03-06T03:53:24.992Z,1006.14
2019-03-06T03:54:25.004Z,1006.13
2019-03-06T03:55:25.016Z,1006.10
2019-03-06T03:56:25.024Z,1006.09
2019-03-06T03:57:25.035Z,1006.11
2019-03-06T03:58:25.045Z,1006.10
2019-03-06T03:59:25.096Z,1006.11
2019-03-06T04:00:25.073Z,1006.12
2019-03-06T04:01:25.075Z,1006.11
2019-03-06T04:02:25.087Z,1006.11
2019-03-06T04:03:25.104Z,1006.09
2019-03-06T04:04:25.111Z,1006.13
2019-03-06T04:05:25.123Z,1006.09
2019-03-06T04:06:25.133Z,1006.13
2019-03-06T04:07:25.141Z,1006.13
2019-03-06T04:08:25.167Z,1006.15
2019-03-06T04:09:25.181Z,1006.19
2019-03-06T04:10:25.170Z,1006.17
2019-03-06T04:11:25.184Z,1006.17
2019-03-06T04:12:25.192Z,1006.18
2019-03-06T04:13:25.203Z,1006.16
2019-03-06T04:14:25.214Z,1006.19
2019-03-06T04:15:25.225Z,1006.16
2019-03-06T04:16:25.238Z,1006.17
2019-03-06T04:17:25.247Z,1006.19
2019-03-06T04:18:25.255Z,1006.19
2019-03-06T04:19:25.288Z,1006.20
2019-03-06T04:20:25.281Z,1006.24
2019-03-06T04:21:25.285Z,1006.21
2019-03-06T04:22:25.298Z,1006.20
2019-03-06T04:23:25.308Z,1006.24
2019-03-06T04:24:25.319Z,1006.21
2019-03-06T04:25:25.327Z,1006.25
2019-03-06T04:26:25.341Z,1006.21
2019-03-06T04:27:25.354Z,1006.16
2019-03-06T04:28:27.841Z,1006.18
2019-03-06T04:29:25.369Z,1006.19
2019-03-06T04:30:25.380Z,1006.18
2019-03-06T04:31:25.392Z,1006.19
2019-03-06T04:32:25.402Z,1006.21
2019-03-06T04:33:25.411Z,1006.19
2019-03-06T04:34:25.428Z,1006.15
2019-03-06T04:35:25.432Z,1006.17
2019-03-06T04:36:25.442Z,1006.21
2019-03-06T04:37:25.451Z,1006.19
2019-03-06T04:38:25.465Z,1006.16
2019-03-06T04:39:25.476Z,1006.15
2019-03-06T04:40:25.485Z,1006.15
2019-03-06T04:41:25.496Z,1006.15
2019-03-06T04:42:25.504Z,1006.13
2019-03-06T04:43:25.514Z,1006.14
2019-03-06T04:44:25.525Z,1006.16
2019-03-06T04:45:25.534Z,1006.12
2019-03-06T04:46:25.545Z,1006.15
2019-03-06T04:47:25.556Z,1006.19
2019-03-06T04:48:25.567Z,1006.19
2019-03-06T04:49:25.574Z,1006.17
2019-03-06T04:50:25.586Z,1006.18
2019-03-06T04:51:25.599Z,1006.16
2019-03-06T04:52:25.605Z,1006.21
2019-03-06T04:53:25.622Z,1006.14
2019-03-06T04:54:25.632Z,1006.12
2019-03-06T04:55:25.637Z,1006.15
2019-03-06T04:56:25.648Z,1006.13
2019-03-06T04:57:25.659Z,1006.11
2019-03-06T04:58:26.286Z,1006.13
2019-03-06T04:59:25.681Z,1006.12
2019-03-06T05:00:25.689Z,1006.11
2019-03-06T05:01:25.699Z,1006.14
2019-03-06T05:02:25.709Z,1006.13
2019-03-06T05:03:25.721Z,1006.11
2019-03-06T05:04:25.733Z,1006.10
2019-03-06T05:05:25.740Z,1006.15
2019-03-06T05:06:25.753Z,1006.10
2019-03-06T05:07:25.760Z,1006.11
2019-03-06T05:08:25.770Z,1006.12
2019-03-06T05:09:25.781Z,1006.14
2019-03-06T05:10:25.790Z,1006.15
2019-03-06T05:11:25.800Z,1006.18
2019-03-06T05:12:25.815Z,1006.17
2019-03-06T05:13:25.822Z,1006.13
2019-03-06T05:14:25.834Z,1006.16
2019-03-06T05:15:25.843Z,1006.12
2019-03-06T05:16:25.855Z,1006.14
2019-03-06T05:17:25.864Z,1006.13
2019-03-06T05:18:25.873Z,1006.13
2019-03-06T05:19:25.883Z,1006.19
2019-03-06T05:20:25.892Z,1006.21
2019-03-06T05:21:25.904Z,1006.23
2019-03-06T05:22:25.914Z,1006.29
2019-03-06T05:23:25.929Z,1006.27
2019-03-06T05:24:25.934Z,1006.36
2019-03-06T05:25:25.946Z,1006.33
2019-03-06T05:26:25.957Z,1006.30
2019-03-06T05:27:25.968Z,1006.32
2019-03-06T05:28:25.976Z,1006.30
2019-03-06T05:29:25.984Z,1006.32
2019-03-06T05:30:25.994Z,1006.26
2019-03-06T05:31:26.006Z,1006.28
2019-03-06T05:32:26.017Z,1006.26
2019-03-06T05:33:26.033Z,1006.28
2019-03-06T05:34:26.120Z,1006.25
2019-03-06T05:35:26.106Z,1006.25
2019-03-06T05:36:26.123Z,1006.23
2019-03-06T05:37:26.122Z,1006.27
2019-03-06T05:38:26.109Z,1006.24
2019-03-06T05:39:26.115Z,1006.25
2019-03-06T05:40:26.135Z,1006.21
2019-03-06T05:41:26.178Z,1006.20
2019-03-06T05:42:26.167Z,1006.22
2019-03-06T05:43:26.173Z,1006.24
2019-03-06T05:44:26.176Z,1006.28
2019-03-06T05:45:26.185Z,1006.31
2019-03-06T05:46:26.178Z,1006.26
2019-03-06T05:47:26.178Z,1006.28
2019-03-06T05:48:26.181Z,1006.25
2019-03-06T05:49:26.187Z,1006.21
2019-03-06T05:50:26.205Z,1006.22
2019-03-06T05:51:26.211Z,1006.24
2019-03-06T05:52:26.220Z,1006.28
2019-03-06T05:53:26.228Z,1006.29
2019-03-06T05:54:26.238Z,1006.31
2019-03-06T05:55:26.251Z,1006.28
2019-03-06T05:56:26.258Z,1006.33
2019-03-06T05:57:26.267Z,1006.33
2019-03-06T05:58:26.279Z,1006.37
2019-03-06T05:59:26.291Z,1006.34
2019-03-06T06:00:26.300Z,1006.35
2019-03-06T06:01:26.311Z,1006.34
2019-03-06T06:02:27.947Z,1006.36
2019-03-06T06:03:26.332Z,1006.32
2019-03-06T06:04:26.339Z,1006.31
2019-03-06T06:05:26.352Z,1006.30
2019-03-06T06:06:26.360Z,1006.27
2019-03-06T06:07:26.372Z,1006.23
2019-03-06T06:08:26.382Z,1006.30
2019-03-06T06:09:26.390Z,1006.30
2019-03-06T06:10:26.398Z,1006.30
2019-03-06T06:11:26.409Z,1006.30
2019-03-06T06:12:26.420Z,1006.28
2019-03-06T06:13:26.432Z,1006.26
2019-03-06T06:14:26.441Z,1006.22
2019-03-06T06:15:26.450Z,1006.21
2019-03-06T06:16:26.460Z,1006.18
2019-03-06T06:17:26.470Z,1006.23
2019-03-06T06:18:26.482Z,1006.25
2019-03-06T06:19:26.493Z,1006.25
2019-03-06T06:20:26.503Z,1006.25
2019-03-06T06:21:26.513Z,1006.28
2019-03-06T06:22:26.527Z,1006.27
2019-03-06T06:23:26.535Z,1006.30
2019-03-06T06:24:26.542Z,1006.32
2019-03-06T06:25:26.555Z,1006.28
2019-03-06T06:26:26.565Z,1006.30
2019-03-06T06:27:26.579Z,1006.28
2019-03-06T06:28:26.587Z,1006.28
2019-03-06T06:29:26.598Z,1006.25
2019-03-06T06:30:26.606Z,1006.26
2019-03-06T06:31:26.616Z,1006.28
2019-03-06T06:32:26.626Z,1006.24
2019-03-06T06:33:26.638Z,1006.20
2019-03-06T06:34:26.648Z,1006.20
2019-03-06T06:35:26.659Z,1006.23
2019-03-06T06:36:26.670Z,1006.24
2019-03-06T06:37:26.681Z,1006.23
2019-03-06T06:38:26.691Z,1006.25
2019-03-06T06:39:26.700Z,1006.24
2019-03-06T06:40:26.712Z,1006.25
2019-03-06T06:41:26.720Z,1006.31
2019-03-06T06:42:26.734Z,1006.29
2019-03-06T06:43:26.744Z,1006.30
2019-03-06T06:44:26.756Z,1006.31
2019-03-06T06:45:26.767Z,1006.34
2019-03-06T06:46:26.778Z,1006.32
2019-03-06T06:47:26.786Z,1006.36
2019-03-06T06:48:26.803Z,1006.30
2019-03-06T06:49:26.808Z,1006.28
2019-03-06T06:50:26.819Z,1006.27
2019-03-06T06:51:26.828Z,1006.27
2019-03-06T06:52:26.840Z,1006.27
2019-03-06T06:53:26.849Z,1006.27
2019-03-06T06:54:26.861Z,1006.28
2019-03-06T06:55:26.873Z,1006.24
2019-03-06T06:56:26.883Z,1006.24
2019-03-06T06:57:26.920Z,1006.22
2019-03-06T06:58:31.290Z,1006.21
2019-03-06T06:59:26.917Z,1006.19
2019-03-06T07:00:26.933Z,1006.21
2019-03-06T07:01:26.935Z,1006.15
2019-03-06T07:02:26.946Z,1006.20
2019-03-06T07:03:26.958Z,1006.12
2019-03-06T07:04:26.970Z,1006.15
2019-03-06T07:05:26.979Z,1006.14
2019-03-06T07:06:26.991Z,1006.16
2019-03-06T07:07:27.002Z,1006.19
2019-03-06T07:08:27.015Z,1006.17
2019-03-06T07:09:27.024Z,1006.26
2019-03-06T07:10:27.036Z,1006.23
2019-03-06T07:11:27.045Z,1006.27
2019-03-06T07:12:27.058Z,1006.22
2019-03-06T07:13:27.070Z,1006.25
2019-03-06T07:14:27.076Z,1006.21
2019-03-06T07:15:27.091Z,1006.22
2019-03-06T07:16:27.103Z,1006.18
2019-03-06T07:17:27.113Z,1006.16
2019-03-06T07:18:27.125Z,1006.16
2019-03-06T07:19:27.137Z,1006.22
2019-03-06T07:20:27.149Z,1006.19
2019-03-06T07:21:27.160Z,1006.19
2019-03-06T07:22:27.170Z,1006.18
2019-03-06T07:23:27.180Z,1006.13
2019-03-06T07:24:27.192Z,1006.12
2019-03-06T07:25:27.203Z,1006.12
2019-03-06T07:26:27.216Z,1006.12
2019-03-06T07:27:27.226Z,1006.14
2019-03-06T07:28:27.239Z,1006.14
2019-03-06T07:29:27.250Z,1006.12
2019-03-06T07:30:27.260Z,1006.09
2019-03-06T07:31:27.272Z,1006.14
2019-03-06T07:32:27.285Z,1006.08
2019-03-06T07:33:27.294Z,1006.10
2019-03-06T07:34:27.312Z,1006.09
2019-03-06T07:35:27.320Z,1006.08
2019-03-06T07:36:27.331Z,1006.10
2019-03-06T07:37:28.838Z,1006.12
2019-03-06T07:38:27.352Z,1006.14
2019-03-06T07:39:27.374Z,1006.19
2019-03-06T07:40:27.376Z,1006.18
2019-03-06T07:41:27.388Z,1006.14
2019-03-06T07:42:27.399Z,1006.22
2019-03-06T07:43:27.415Z,1006.20
2019-03-06T07:44:30.468Z,1006.19
2019-03-06T07:45:27.435Z,1006.21
2019-03-06T07:46:27.447Z,1006.19
2019-03-06T07:47:27.459Z,1006.23
2019-03-06T07:48:27.471Z,1006.21
2019-03-06T07:49:27.484Z,1006.20
2019-03-06T07:50:27.494Z,1006.19
2019-03-06T07:51:27.507Z,1006.28
2019-03-06T07:52:27.520Z,1006.27
2019-03-06T07:53:27.530Z,1006.28
2019-03-06T07:54:27.544Z,1006.28
2019-03-06T07:55:27.555Z,1006.23
2019-03-06T07:56:27.570Z,1006.22
2019-03-06T07:57:27.579Z,1006.23
2019-03-06T07:58:27.595Z,1006.23
2019-03-06T07:59:27.606Z,1006.20
2019-03-06T08:00:27.623Z,1006.18
2019-03-06T08:01:27.629Z,1006.15
2019-03-06T08:02:27.641Z,1006.16
2019-03-06T08:03:27.655Z,1006.14
2019-03-06T08:04:27.664Z,1006.18
2019-03-06T08:05:27.681Z,1006.17
2019-03-06T08:06:27.692Z,1006.17
2019-03-06T08:07:27.706Z,1006.16
2019-03-06T08:08:27.717Z,1006.13
2019-03-06T08:09:27.733Z,1006.16
2019-03-06T08:10:27.740Z,1006.16
2019-03-06T08:11:27.753Z,1006.14
2019-03-06T08:12:27.765Z,1006.12
2019-03-06T08:13:27.777Z,1006.15
2019-03-06T08:14:27.791Z,1006.10
2019-03-06T08:15:27.805Z,1006.10
2019-03-06T08:16:27.814Z,1006.11
2019-03-06T08:17:27.833Z,1006.10
2019-03-06T08:18:27.919Z,1006.11
2019-03-06T08:19:27.893Z,1006.08
2019-03-06T08:20:27.915Z,1006.10
2019-03-06T08:21:27.921Z,1006.12
2019-03-06T08:22:27.974Z,1006.06
2019-03-06T08:23:27.975Z,1006.10
2019-03-06T08:24:27.971Z,1006.07
2019-03-06T08:25:27.975Z,1006.08
2019-03-06T08:26:27.976Z,1006.06
2019-03-06T08:27:27.977Z,1006.06
2019-03-06T08:28:27.981Z,1006.05
2019-03-06T08:29:27.983Z,1006.04
2019-03-06T08:30:27.995Z,1006.04
2019-03-06T08:31:28.009Z,1006.05
2019-03-06T08:32:28.021Z,1006.07
2019-03-06T08:33:28.032Z,1006.04
2019-03-06T08:34:28.047Z,1006.00
2019-03-06T08:35:28.060Z,1006.01
2019-03-06T08:36:28.074Z,1005.98
2019-03-06T08:37:28.087Z,1005.98
2019-03-06T08:38:28.099Z,1005.92
2019-03-06T08:39:28.114Z,1005.92
2019-03-06T08:40:28.127Z,1005.97
2019-03-06T08:41:28.140Z,1005.95
2019-03-06T08:42:28.154Z,1005.97
2019-03-06T08:43:28.168Z,1006.00
2019-03-06T08:44:28.180Z,1005.94
2019-03-06T08:45:28.195Z,1005.96
2019-03-06T08:46:28.210Z,1005.88
2019-03-06T08:47:28.226Z,1005.88
2019-03-06T08:48:28.246Z,1005.86
2019-03-06T08:49:28.250Z,1005.80
2019-03-06T08:50:28.269Z,1005.82
2019-03-06T08:51:28.283Z,1005.79
2019-03-06T08:52:28.296Z,1005.78
2019-03-06T08:53:28.313Z,1005.83
2019-03-06T08:54:28.325Z,1005.80
2019-03-06T08:55:28.340Z,1005.84
2019-03-06T08:56:28.356Z,1005.80
2019-03-06T08:57:28.369Z,1005.78
2019-03-06T08:58:28.385Z,1005.78
2019-03-06T08:59:28.400Z,1005.79
2019-03-06T09:00:30.402Z,1005.75
2019-03-06T09:01:28.428Z,1005.73
2019-03-06T09:02:28.444Z,1005.75
2019-03-06T09:03:28.459Z,1005.71
2019-03-06T09:04:28.475Z,1005.67
2019-03-06T09:05:28.489Z,1005.72
2019-03-06T09:06:28.506Z,1005.78
2019-03-06T09:07:28.522Z,1005.74
2019-03-06T09:08:28.536Z,1005.72
2019-03-06T09:09:28.549Z,1005.71
2019-03-06T09:10:28.566Z,1005.68
2019-03-06T09:11:28.585Z,1005.70
2019-03-06T09:12:28.597Z,1005.65
2019-03-06T09:13:28.611Z,1005.58
2019-03-06T09:14:28.628Z,1005.62
2019-03-06T09:15:28.643Z,1005.60
2019-03-06T09:16:28.657Z,1005.57
2019-03-06T09:17:28.673Z,1005.56
2019-03-06T09:18:28.689Z,1005.54
2019-03-06T09:19:28.705Z,1005.50
2019-03-06T09:20:35.952Z,1005.43
2019-03-06T09:21:28.734Z,1005.47
2019-03-06T09:22:28.753Z,1005.42
2019-03-06T09:23:28.766Z,1005.38
2019-03-06T09:24:28.781Z,1005.37
2019-03-06T09:25:28.795Z,1005.43
2019-03-06T09:26:28.810Z,1005.35
2019-03-06T09:27:28.825Z,1005.33
2019-03-06T09:28:28.846Z,1005.31
2019-03-06T09:29:28.857Z,1005.34
2019-03-06T09:30:28.874Z,1005.27
2019-03-06T09:31:28.932Z,1005.29
2019-03-06T09:32:28.910Z,1005.29
2019-03-06T09:33:28.921Z,1005.27
2019-03-06T09:34:28.938Z,1005.31
2019-03-06T09:35:28.951Z,1005.28
2019-03-06T09:36:28.969Z,1005.28
2019-03-06T09:37:28.984Z,1005.24
2019-03-06T09:38:28.999Z,1005.24
2019-03-06T09:39:29.016Z,1005.22
2019-03-06T09:40:29.034Z,1005.19
2019-03-06T09:41:29.048Z,1005.22
2019-03-06T09:42:29.068Z,1005.15
2019-03-06T09:43:29.080Z,1005.17
2019-03-06T09:44:29.100Z,1005.14
2019-03-06T09:45:29.115Z,1005.09
2019-03-06T09:46:29.131Z,1005.12
2019-03-06T09:47:29.145Z,1005.09
2019-03-06T09:48:29.161Z,1005.14
2019-03-06T09:49:29.176Z,1005.16
2019-03-06T09:50:29.195Z,1005.17
2019-03-06T09:51:29.215Z,1005.12
2019-03-06T09:52:29.231Z,1005.03
2019-03-06T09:53:29.246Z,1005.05
2019-03-06T09:54:29.262Z,1005.07
2019-03-06T09:55:29.277Z,1005.05
2019-03-06T09:56:29.296Z,1005.03
2019-03-06T09:57:29.312Z,1005.01
2019-03-06T09:58:29.329Z,1005.01
2019-03-06T09:59:29.344Z,1005.00
2019-03-06T10:00:29.362Z,1004.97
2019-03-06T10:01:29.379Z,1005.02
2019-03-06T10:02:29.398Z,1004.96
2019-03-06T10:03:29.411Z,1004.97
2019-03-06T10:04:29.450Z,1004.95
2019-03-06T10:05:29.444Z,1004.90
2019-03-06T10:06:29.465Z,1004.87
2019-03-06T10:07:29.481Z,1004.89
2019-03-06T10:08:29.496Z,1004.87
2019-03-06T10:09:29.511Z,1004.88
2019-03-06T10:10:29.532Z,1004.90
2019-03-06T10:11:29.545Z,1004.77
2019-03-06T10:12:29.564Z,1004.77
2019-03-06T10:13:29.584Z,1004.82
2019-03-06T10:14:29.600Z,1004.81
2019-03-06T10:15:29.614Z,1004.76
2019-03-06T10:16:29.633Z,1004.77
2019-03-06T10:17:30.191Z,1004.76
2019-03-06T10:18:29.666Z,1004.77
2019-03-06T10:19:29.719Z,1004.73
2019-03-06T10:20:29.760Z,1004.72
2019-03-06T10:21:29.774Z,1004.79
2019-03-06T10:22:29.761Z,1004.77
2019-03-06T10:23:29.813Z,1004.77
2019-03-06T10:24:29.832Z,1004.72
2019-03-06T10:25:30.633Z,1004.73
2019-03-06T10:26:29.836Z,1004.73
2019-03-06T10:27:29.823Z,1004.69
2019-03-06T10:28:29.835Z,1004.73
2019-03-06T10:29:29.858Z,1004.64
2019-03-06T10:30:29.870Z,1004.67
2019-03-06T10:31:29.891Z,1004.66
2019-03-06T11:06:30.502Z,1004.27
2019-03-06T11:07:30.524Z,1004.15
2019-03-06T11:08:30.543Z,1004.21
2019-03-06T11:09:30.556Z,1004.18
2019-03-06T11:10:30.576Z,1004.16
2019-03-06T11:11:30.596Z,1004.17
2019-03-06T11:12:30.612Z,1004.19
2019-03-06T11:13:30.629Z,1004.13
2019-03-06T11:14:30.650Z,1004.08
2019-03-06T11:15:30.669Z,1004.09
2019-03-06T11:16:32.278Z,1004.08
2019-03-06T11:17:30.703Z,1004.13
2019-03-06T11:18:30.722Z,1003.95
2019-03-06T11:19:30.742Z,1003.99
2019-03-06T11:20:30.759Z,1004.04
2019-03-06T11:21:30.777Z,1003.91
2019-03-06T11:22:30.797Z,1003.96
2019-03-06T11:23:30.817Z,1003.99
2019-03-06T11:24:30.835Z,1003.94
2019-03-06T11:25:30.852Z,1003.96
2019-03-06T11:26:30.870Z,1003.94
2019-03-06T11:27:30.891Z,1003.90
2019-03-06T11:28:30.911Z,1003.89
2019-03-06T11:29:30.934Z,1003.88
2019-03-06T11:30:30.947Z,1003.86
2019-03-06T11:31:30.965Z,1003.86
2019-03-06T11:32:30.985Z,1003.85
2019-03-06T11:33:31.005Z,1003.87
2019-03-06T11:34:31.025Z,1003.77
2019-03-06T11:35:31.047Z,1003.82
2019-03-06T11:36:31.062Z,1003.79
2019-03-06T11:37:31.079Z,1003.80
2019-03-06T11:38:31.098Z,1003.81
2019-03-06T11:39:31.121Z,1003.78
2019-03-06T11:40:31.136Z,1003.81
2019-03-06T11:41:31.155Z,1003.77
2019-03-06T11:42:31.215Z,1003.76
2019-03-06T11:43:31.196Z,1003.76
2019-03-06T11:44:31.216Z,1003.67
2019-03-06T11:45:31.232Z,1003.71
2019-03-06T11:46:31.252Z,1003.68
2019-03-06T11:47:31.273Z,1003.69
2019-03-06T11:48:31.290Z,1003.65
2019-03-06T11:49:31.316Z,1003.65
2019-03-06T11:50:40.322Z,1003.72
2019-03-06T11:51:31.348Z,1003.63
2019-03-06T11:52:34.835Z,1003.65
2019-03-06T11:53:32.916Z,1003.66
2019-03-06T11:54:31.406Z,1003.63
2019-03-06T11:55:31.425Z,1003.60
2019-03-06T11:56:31.447Z,1003.58
2019-03-06T11:57:33.297Z,1003.58
2019-03-06T11:58:31.486Z,1003.54
2019-03-06T11:59:31.509Z,1003.49
2019-03-06T12:00:31.527Z,1003.47
2019-03-06T12:01:31.557Z,1003.39
2019-03-06T12:02:31.637Z,1003.39
2019-03-06T12:03:31.640Z,1003.36
2019-03-06T12:04:31.639Z,1003.25
2019-03-06T12:05:31.705Z,1003.17
2019-03-06T12:06:31.708Z,1003.21
2019-03-06T12:07:31.704Z,1003.22
2019-03-06T12:08:31.704Z,1003.21
2019-03-06T12:09:31.707Z,1003.22
2019-03-06T12:10:31.723Z,1003.14
2019-03-06T12:11:31.741Z,1003.16
2019-03-06T12:12:31.762Z,1003.14
2019-03-06T12:13:31.781Z,1003.12
2019-03-06T12:14:31.801Z,1003.11
2019-03-06T12:15:31.820Z,1003.07
2019-03-06T12:16:31.848Z,1003.06
2019-03-06T12:17:31.859Z,1003.02
2019-03-06T12:18:31.879Z,1003.00
2019-03-06T12:19:31.901Z,1003.05
2019-03-06T12:20:31.919Z,1003.08
2019-03-06T12:21:31.936Z,1003.04
2019-03-06T12:22:31.957Z,1002.99
2019-03-06T12:23:31.974Z,1002.99
2019-03-06T12:24:31.996Z,1003.00
2019-03-06T12:25:32.013Z,1002.99
2019-03-06T12:26:32.036Z,1002.98
2019-03-06T12:27:32.057Z,1002.96
2019-03-06T12:28:32.072Z,1002.99
2019-03-06T12:29:32.091Z,1002.97
2019-03-06T12:30:32.109Z,1002.96
2019-03-06T12:31:32.130Z,1003.00
2019-03-06T12:32:32.150Z,1002.99
2019-03-06T12:33:32.171Z,1002.93
2019-03-06T12:34:32.187Z,1002.90
2019-03-06T12:35:32.207Z,1002.90
2019-03-06T12:36:32.227Z,1002.81
2019-03-06T12:37:32.247Z,1002.84
2019-03-06T12:38:32.267Z,1002.87
2019-03-06T12:39:32.286Z,1002.80